sensor_id;sensor_type;location;lat;lon;timestamp;P1;durP1;ratioP1;P2;durP2;ratioP2
703;SDS011;335;48.694;9.120;2023-09-30T00:01:41;6.20;;;4.57;;
703;SDS011;335;48.694;9.120;2023-09-30T00:04:06;5.80;;;4.23;;
703;SDS011;335;48.694;9.120;2023-09-30T00:06:32;6.70;;;4.87;;
703;SDS011;335;48.694;9.120;2023-09-30T00:08:57;6.17;;;5.00;;
703;SDS011;335;48.694;9.120;2023-09-30T00:11:22;6.03;;;3.80;;
703;SDS011;335;48.694;9.120;2023-09-30T00:13:48;4.97;;;3.97;;
703;SDS011;335;48.694;9.120;2023-09-30T00:16:14;6.23;;;4.50;;
703;SDS011;335;48.694;9.120;2023-09-30T00:18:42;5.40;;;4.00;;
703;SDS011;335;48.694;9.120;2023-09-30T00:21:07;4.47;;;3.73;;
703;SDS011;335;48.694;9.120;2023-09-30T00:23:32;6.37;;;3.60;;
703;SDS011;335;48.694;9.120;2023-09-30T00:25:58;5.90;;;4.20;;
703;SDS011;335;48.694;9.120;2023-09-30T00:28:25;3.97;;;3.57;;
703;SDS011;335;48.694;9.120;2023-09-30T00:30:50;5.67;;;4.20;;
703;SDS011;335;48.694;9.120;2023-09-30T00:33:15;5.10;;;4.07;;
703;SDS011;335;48.694;9.120;2023-09-30T00:35:41;6.43;;;3.90;;
703;SDS011;335;48.694;9.120;2023-09-30T00:38:06;4.47;;;3.67;;
703;SDS011;335;48.694;9.120;2023-09-30T00:40:31;4.50;;;3.90;;
703;SDS011;335;48.694;9.120;2023-09-30T00:42:57;4.17;;;3.77;;
703;SDS011;335;48.694;9.120;2023-09-30T00:45:23;5.60;;;3.73;;
703;SDS011;335;48.694;9.120;2023-09-30T00:47:48;4.40;;;3.63;;
703;SDS011;335;48.694;9.120;2023-09-30T00:50:13;6.23;;;4.43;;
703;SDS011;335;48.694;9.120;2023-09-30T00:52:39;4.73;;;3.70;;
703;SDS011;335;48.694;9.120;2023-09-30T00:55:05;5.50;;;3.67;;
703;SDS011;335;48.694;9.120;2023-09-30T00:57:31;4.27;;;3.87;;
703;SDS011;335;48.694;9.120;2023-09-30T00:59:56;6.20;;;4.33;;
703;SDS011;335;48.694;9.120;2023-09-30T01:02:22;5.60;;;4.20;;
703;SDS011;335;48.694;9.120;2023-09-30T01:04:48;3.97;;;3.60;;
703;SDS011;335;48.694;9.120;2023-09-30T01:07:13;4.03;;;3.53;;
703;SDS011;335;48.694;9.120;2023-09-30T01:09:39;4.60;;;3.73;;
703;SDS011;335;48.694;9.120;2023-09-30T01:12:04;4.83;;;3.77;;
703;SDS011;335;48.694;9.120;2023-09-30T01:14:30;4.20;;;3.80;;
703;SDS011;335;48.694;9.120;2023-09-30T01:16:57;5.60;;;3.80;;
703;SDS011;335;48.694;9.120;2023-09-30T01:19:23;6.30;;;4.33;;
703;SDS011;335;48.694;9.120;2023-09-30T01:21:55;4.47;;;3.50;;
703;SDS011;335;48.694;9.120;2023-09-30T01:24:31;5.60;;;4.00;;
703;SDS011;335;48.694;9.120;2023-09-30T01:26:56;4.73;;;3.43;;
703;SDS011;335;48.694;9.120;2023-09-30T01:29:22;3.27;;;2.97;;
703;SDS011;335;48.694;9.120;2023-09-30T01:31:50;3.03;;;2.83;;
703;SDS011;335;48.694;9.120;2023-09-30T01:34:16;5.17;;;3.40;;
703;SDS011;335;48.694;9.120;2023-09-30T01:36:42;4.47;;;3.20;;
703;SDS011;335;48.694;9.120;2023-09-30T01:39:08;3.43;;;3.23;;
703;SDS011;335;48.694;9.120;2023-09-30T01:41:35;3.50;;;2.77;;
703;SDS011;335;48.694;9.120;2023-09-30T01:44:01;3.80;;;3.33;;
703;SDS011;335;48.694;9.120;2023-09-30T01:46:26;2.80;;;2.60;;
703;SDS011;335;48.694;9.120;2023-09-30T01:48:51;3.60;;;3.17;;
703;SDS011;335;48.694;9.120;2023-09-30T01:51:17;4.33;;;3.37;;
703;SDS011;335;48.694;9.120;2023-09-30T01:53:42;4.00;;;3.10;;
703;SDS011;335;48.694;9.120;2023-09-30T01:56:08;4.43;;;3.60;;
703;SDS011;335;48.694;9.120;2023-09-30T01:58:33;5.50;;;3.80;;
703;SDS011;335;48.694;9.120;2023-09-30T02:01:02;6.07;;;3.80;;
703;SDS011;335;48.694;9.120;2023-09-30T02:03:28;6.57;;;4.00;;
703;SDS011;335;48.694;9.120;2023-09-30T02:05:54;6.27;;;3.87;;
703;SDS011;335;48.694;9.120;2023-09-30T02:08:19;4.20;;;3.33;;
703;SDS011;335;48.694;9.120;2023-09-30T02:10:45;4.67;;;4.20;;
703;SDS011;335;48.694;9.120;2023-09-30T02:13:10;4.70;;;3.67;;
703;SDS011;335;48.694;9.120;2023-09-30T02:15:39;4.20;;;3.87;;
703;SDS011;335;48.694;9.120;2023-09-30T02:18:04;4.57;;;3.47;;
703;SDS011;335;48.694;9.120;2023-09-30T02:20:30;4.03;;;3.00;;
703;SDS011;335;48.694;9.120;2023-09-30T02:22:55;4.57;;;3.90;;
703;SDS011;335;48.694;9.120;2023-09-30T02:25:22;4.00;;;3.30;;
703;SDS011;335;48.694;9.120;2023-09-30T02:27:49;4.47;;;3.60;;
703;SDS011;335;48.694;9.120;2023-09-30T02:30:14;3.10;;;2.80;;
703;SDS011;335;48.694;9.120;2023-09-30T02:32:41;5.43;;;4.03;;
703;SDS011;335;48.694;9.120;2023-09-30T02:35:07;5.23;;;4.13;;
703;SDS011;335;48.694;9.120;2023-09-30T02:37:33;5.00;;;3.57;;
703;SDS011;335;48.694;9.120;2023-09-30T02:40:03;2.93;;;2.73;;
703;SDS011;335;48.694;9.120;2023-09-30T02:42:30;3.93;;;3.60;;
703;SDS011;335;48.694;9.120;2023-09-30T02:44:56;3.87;;;3.30;;
703;SDS011;335;48.694;9.120;2023-09-30T02:47:21;5.23;;;2.67;;
703;SDS011;335;48.694;9.120;2023-09-30T02:49:46;4.53;;;3.10;;
703;SDS011;335;48.694;9.120;2023-09-30T02:52:12;3.90;;;3.60;;
703;SDS011;335;48.694;9.120;2023-09-30T02:54:37;5.03;;;3.17;;
703;SDS011;335;48.694;9.120;2023-09-30T02:57:03;4.30;;;3.40;;
703;SDS011;335;48.694;9.120;2023-09-30T02:59:29;4.10;;;3.30;;
703;SDS011;335;48.694;9.120;2023-09-30T03:01:54;2.90;;;2.50;;
703;SDS011;335;48.694;9.120;2023-09-30T03:04:20;6.57;;;3.80;;
703;SDS011;335;48.694;9.120;2023-09-30T03:06:45;4.30;;;3.33;;
703;SDS011;335;48.694;9.120;2023-09-30T03:09:11;3.97;;;3.57;;
703;SDS011;335;48.694;9.120;2023-09-30T03:11:40;6.87;;;3.80;;
703;SDS011;335;48.694;9.120;2023-09-30T03:14:08;4.30;;;3.13;;
703;SDS011;335;48.694;9.120;2023-09-30T03:16:34;3.90;;;3.40;;
703;SDS011;335;48.694;9.120;2023-09-30T03:19:03;3.10;;;2.80;;
703;SDS011;335;48.694;9.120;2023-09-30T03:21:33;4.20;;;3.60;;
703;SDS011;335;48.694;9.120;2023-09-30T03:24:04;4.77;;;3.10;;
703;SDS011;335;48.694;9.120;2023-09-30T03:26:31;3.73;;;3.17;;
703;SDS011;335;48.694;9.120;2023-09-30T03:28:56;3.43;;;3.13;;
703;SDS011;335;48.694;9.120;2023-09-30T03:31:22;3.67;;;3.30;;
703;SDS011;335;48.694;9.120;2023-09-30T03:33:50;3.73;;;2.50;;
703;SDS011;335;48.694;9.120;2023-09-30T03:36:19;3.53;;;2.80;;
703;SDS011;335;48.694;9.120;2023-09-30T03:38:49;3.47;;;3.17;;
703;SDS011;335;48.694;9.120;2023-09-30T03:41:15;4.10;;;3.30;;
703;SDS011;335;48.694;9.120;2023-09-30T03:43:40;4.17;;;3.80;;
703;SDS011;335;48.694;9.120;2023-09-30T03:46:09;5.20;;;3.13;;
703;SDS011;335;48.694;9.120;2023-09-30T03:48:34;3.43;;;3.10;;
703;SDS011;335;48.694;9.120;2023-09-30T03:51:13;3.03;;;2.53;;
703;SDS011;335;48.694;9.120;2023-09-30T03:53:43;3.70;;;3.40;;
703;SDS011;335;48.694;9.120;2023-09-30T03:56:09;4.23;;;2.87;;
703;SDS011;335;48.694;9.120;2023-09-30T03:58:41;3.33;;;3.03;;
703;SDS011;335;48.694;9.120;2023-09-30T04:01:08;4.30;;;3.50;;
703;SDS011;335;48.694;9.120;2023-09-30T04:03:36;4.20;;;3.37;;
703;SDS011;335;48.694;9.120;2023-09-30T04:06:04;4.10;;;3.10;;
703;SDS011;335;48.694;9.120;2023-09-30T04:08:29;4.00;;;3.60;;
703;SDS011;335;48.694;9.120;2023-09-30T04:10:58;3.77;;;3.30;;
703;SDS011;335;48.694;9.120;2023-09-30T04:13:24;3.10;;;2.80;;
703;SDS011;335;48.694;9.120;2023-09-30T04:15:49;3.50;;;3.20;;
703;SDS011;335;48.694;9.120;2023-09-30T04:18:15;3.43;;;2.60;;
703;SDS011;335;48.694;9.120;2023-09-30T04:20:41;6.00;;;3.80;;
703;SDS011;335;48.694;9.120;2023-09-30T04:23:07;3.77;;;2.87;;
703;SDS011;335;48.694;9.120;2023-09-30T04:25:34;4.10;;;3.40;;
703;SDS011;335;48.694;9.120;2023-09-30T04:28:00;3.70;;;3.40;;
703;SDS011;335;48.694;9.120;2023-09-30T04:30:25;5.00;;;3.30;;
703;SDS011;335;48.694;9.120;2023-09-30T04:32:52;6.10;;;4.20;;
703;SDS011;335;48.694;9.120;2023-09-30T04:35:18;3.83;;;3.40;;
703;SDS011;335;48.694;9.120;2023-09-30T04:37:43;4.93;;;3.67;;
703;SDS011;335;48.694;9.120;2023-09-30T04:40:09;5.63;;;3.93;;
703;SDS011;335;48.694;9.120;2023-09-30T04:42:44;4.07;;;3.73;;
703;SDS011;335;48.694;9.120;2023-09-30T04:45:11;6.00;;;4.50;;
703;SDS011;335;48.694;9.120;2023-09-30T04:47:37;3.70;;;3.40;;
703;SDS011;335;48.694;9.120;2023-09-30T04:50:05;3.30;;;3.00;;
703;SDS011;335;48.694;9.120;2023-09-30T04:52:32;3.27;;;3.03;;
703;SDS011;335;48.694;9.120;2023-09-30T04:54:58;4.07;;;3.60;;
703;SDS011;335;48.694;9.120;2023-09-30T04:57:25;3.57;;;3.10;;
703;SDS011;335;48.694;9.120;2023-09-30T04:59:51;4.50;;;2.90;;
703;SDS011;335;48.694;9.120;2023-09-30T05:02:16;3.30;;;3.00;;
703;SDS011;335;48.694;9.120;2023-09-30T05:04:42;3.70;;;3.13;;
703;SDS011;335;48.694;9.120;2023-09-30T05:07:10;3.23;;;2.90;;
703;SDS011;335;48.694;9.120;2023-09-30T05:09:37;4.33;;;3.23;;
703;SDS011;335;48.694;9.120;2023-09-30T05:12:03;3.40;;;3.10;;
703;SDS011;335;48.694;9.120;2023-09-30T05:14:29;4.60;;;2.93;;
703;SDS011;335;48.694;9.120;2023-09-30T05:16:54;3.77;;;3.37;;
703;SDS011;335;48.694;9.120;2023-09-30T05:19:21;3.63;;;3.00;;
703;SDS011;335;48.694;9.120;2023-09-30T05:21:47;3.23;;;2.93;;
703;SDS011;335;48.694;9.120;2023-09-30T05:24:12;3.10;;;2.80;;
703;SDS011;335;48.694;9.120;2023-09-30T05:26:37;2.73;;;2.53;;
703;SDS011;335;48.694;9.120;2023-09-30T05:29:03;3.27;;;3.00;;
703;SDS011;335;48.694;9.120;2023-09-30T05:31:28;4.40;;;4.00;;
703;SDS011;335;48.694;9.120;2023-09-30T05:33:54;3.27;;;3.00;;
703;SDS011;335;48.694;9.120;2023-09-30T05:36:20;3.70;;;3.40;;
703;SDS011;335;48.694;9.120;2023-09-30T05:38:46;4.73;;;3.07;;
703;SDS011;335;48.694;9.120;2023-09-30T05:41:13;7.27;;;3.70;;
703;SDS011;335;48.694;9.120;2023-09-30T05:43:39;3.10;;;2.80;;
703;SDS011;335;48.694;9.120;2023-09-30T05:46:05;3.33;;;3.03;;
703;SDS011;335;48.694;9.120;2023-09-30T05:48:31;3.37;;;3.07;;
703;SDS011;335;48.694;9.120;2023-09-30T05:50:57;4.20;;;3.90;;
703;SDS011;335;48.694;9.120;2023-09-30T05:53:22;6.10;;;3.73;;
703;SDS011;335;48.694;9.120;2023-09-30T05:55:47;3.50;;;3.20;;
703;SDS011;335;48.694;9.120;2023-09-30T05:58:13;3.93;;;3.20;;
703;SDS011;335;48.694;9.120;2023-09-30T06:00:40;3.93;;;3.43;;
703;SDS011;335;48.694;9.120;2023-09-30T06:03:07;3.50;;;3.20;;
703;SDS011;335;48.694;9.120;2023-09-30T06:05:32;3.43;;;3.17;;
703;SDS011;335;48.694;9.120;2023-09-30T06:07:59;3.77;;;3.40;;
703;SDS011;335;48.694;9.120;2023-09-30T06:10:27;4.00;;;3.53;;
703;SDS011;335;48.694;9.120;2023-09-30T06:12:53;3.30;;;2.53;;
703;SDS011;335;48.694;9.120;2023-09-30T06:15:22;3.83;;;3.37;;
703;SDS011;335;48.694;9.120;2023-09-30T06:17:51;3.80;;;3.50;;
703;SDS011;335;48.694;9.120;2023-09-30T06:20:20;3.60;;;3.10;;
703;SDS011;335;48.694;9.120;2023-09-30T06:22:47;3.07;;;2.80;;
703;SDS011;335;48.694;9.120;2023-09-30T06:25:15;3.90;;;3.60;;
703;SDS011;335;48.694;9.120;2023-09-30T06:27:45;4.30;;;3.77;;
703;SDS011;335;48.694;9.120;2023-09-30T06:30:12;3.43;;;3.13;;
703;SDS011;335;48.694;9.120;2023-09-30T06:32:38;4.03;;;3.73;;
703;SDS011;335;48.694;9.120;2023-09-30T06:35:04;4.00;;;3.70;;
703;SDS011;335;48.694;9.120;2023-09-30T06:37:31;3.80;;;3.60;;
703;SDS011;335;48.694;9.120;2023-09-30T06:39:57;4.40;;;4.00;;
703;SDS011;335;48.694;9.120;2023-09-30T06:42:23;4.10;;;3.80;;
703;SDS011;335;48.694;9.120;2023-09-30T06:44:52;4.57;;;4.17;;
703;SDS011;335;48.694;9.120;2023-09-30T06:47:18;4.13;;;3.80;;
703;SDS011;335;48.694;9.120;2023-09-30T06:49:43;4.07;;;3.77;;
703;SDS011;335;48.694;9.120;2023-09-30T06:52:10;5.47;;;4.90;;
703;SDS011;335;48.694;9.120;2023-09-30T06:54:35;5.63;;;5.13;;
703;SDS011;335;48.694;9.120;2023-09-30T06:57:00;5.40;;;4.07;;
703;SDS011;335;48.694;9.120;2023-09-30T06:59:26;4.23;;;3.90;;
703;SDS011;335;48.694;9.120;2023-09-30T07:01:51;4.70;;;3.63;;
703;SDS011;335;48.694;9.120;2023-09-30T07:04:17;4.40;;;4.00;;
703;SDS011;335;48.694;9.120;2023-09-30T07:06:42;4.67;;;4.37;;
703;SDS011;335;48.694;9.120;2023-09-30T07:09:07;6.03;;;3.90;;
703;SDS011;335;48.694;9.120;2023-09-30T07:11:34;5.60;;;4.87;;
703;SDS011;335;48.694;9.120;2023-09-30T07:14:00;5.30;;;4.67;;
703;SDS011;335;48.694;9.120;2023-09-30T07:16:26;4.97;;;4.50;;
703;SDS011;335;48.694;9.120;2023-09-30T07:18:51;4.87;;;4.37;;
703;SDS011;335;48.694;9.120;2023-09-30T07:21:16;4.40;;;4.00;;
703;SDS011;335;48.694;9.120;2023-09-30T07:23:42;8.93;;;3.93;;
703;SDS011;335;48.694;9.120;2023-09-30T07:26:07;4.70;;;4.30;;
703;SDS011;335;48.694;9.120;2023-09-30T07:28:33;4.33;;;3.90;;
703;SDS011;335;48.694;9.120;2023-09-30T07:30:58;4.60;;;3.97;;
703;SDS011;335;48.694;9.120;2023-09-30T07:33:24;4.60;;;3.97;;
703;SDS011;335;48.694;9.120;2023-09-30T07:35:49;4.07;;;3.77;;
703;SDS011;335;48.694;9.120;2023-09-30T07:38:14;4.50;;;3.90;;
703;SDS011;335;48.694;9.120;2023-09-30T07:40:40;3.80;;;3.50;;
703;SDS011;335;48.694;9.120;2023-09-30T07:43:06;3.53;;;3.23;;
703;SDS011;335;48.694;9.120;2023-09-30T07:45:31;3.33;;;3.13;;
703;SDS011;335;48.694;9.120;2023-09-30T07:47:57;7.13;;;4.03;;
703;SDS011;335;48.694;9.120;2023-09-30T07:50:23;3.60;;;3.30;;
703;SDS011;335;48.694;9.120;2023-09-30T07:52:49;3.70;;;3.50;;
703;SDS011;335;48.694;9.120;2023-09-30T07:55:14;4.07;;;3.40;;
703;SDS011;335;48.694;9.120;2023-09-30T07:57:40;3.20;;;2.90;;
703;SDS011;335;48.694;9.120;2023-09-30T08:00:08;3.40;;;3.10;;
703;SDS011;335;48.694;9.120;2023-09-30T08:02:34;3.80;;;3.10;;
703;SDS011;335;48.694;9.120;2023-09-30T08:04:59;4.23;;;3.83;;
703;SDS011;335;48.694;9.120;2023-09-30T08:07:26;3.30;;;3.10;;
703;SDS011;335;48.694;9.120;2023-09-30T08:09:51;4.03;;;2.93;;
703;SDS011;335;48.694;9.120;2023-09-30T08:12:16;3.50;;;3.30;;
703;SDS011;335;48.694;9.120;2023-09-30T08:14:42;4.80;;;4.10;;
703;SDS011;335;48.694;9.120;2023-09-30T08:17:09;3.20;;;2.93;;
703;SDS011;335;48.694;9.120;2023-09-30T08:19:35;4.00;;;3.70;;
703;SDS011;335;48.694;9.120;2023-09-30T08:22:00;3.30;;;3.00;;
703;SDS011;335;48.694;9.120;2023-09-30T08:24:28;3.10;;;2.90;;
703;SDS011;335;48.694;9.120;2023-09-30T08:26:53;3.33;;;3.00;;
703;SDS011;335;48.694;9.120;2023-09-30T08:29:20;4.00;;;3.60;;
703;SDS011;335;48.694;9.120;2023-09-30T08:31:46;3.70;;;2.17;;
703;SDS011;335;48.694;9.120;2023-09-30T08:34:11;4.23;;;2.87;;
703;SDS011;335;48.694;9.120;2023-09-30T08:36:39;3.27;;;2.43;;
703;SDS011;335;48.694;9.120;2023-09-30T08:39:04;2.90;;;2.70;;
703;SDS011;335;48.694;9.120;2023-09-30T08:41:33;2.87;;;2.67;;
703;SDS011;335;48.694;9.120;2023-09-30T08:44:02;2.50;;;2.30;;
703;SDS011;335;48.694;9.120;2023-09-30T08:46:33;4.40;;;2.90;;
703;SDS011;335;48.694;9.120;2023-09-30T08:49:03;3.73;;;3.47;;
703;SDS011;335;48.694;9.120;2023-09-30T08:51:29;3.03;;;2.83;;
703;SDS011;335;48.694;9.120;2023-09-30T08:53:56;2.53;;;2.33;;
703;SDS011;335;48.694;9.120;2023-09-30T08:56:31;3.77;;;3.10;;
703;SDS011;335;48.694;9.120;2023-09-30T08:59:02;3.07;;;2.87;;
703;SDS011;335;48.694;9.120;2023-09-30T09:01:28;2.50;;;2.40;;
703;SDS011;335;48.694;9.120;2023-09-30T09:03:55;2.87;;;2.67;;
703;SDS011;335;48.694;9.120;2023-09-30T09:06:21;2.40;;;2.20;;
703;SDS011;335;48.694;9.120;2023-09-30T09:08:47;2.83;;;2.67;;
703;SDS011;335;48.694;9.120;2023-09-30T09:11:12;3.00;;;2.80;;
703;SDS011;335;48.694;9.120;2023-09-30T09:13:52;3.57;;;3.27;;
703;SDS011;335;48.694;9.120;2023-09-30T09:16:21;3.80;;;3.50;;
703;SDS011;335;48.694;9.120;2023-09-30T09:18:48;2.70;;;2.50;;
703;SDS011;335;48.694;9.120;2023-09-30T09:21:14;3.13;;;2.83;;
703;SDS011;335;48.694;9.120;2023-09-30T09:23:46;3.47;;;3.17;;
703;SDS011;335;48.694;9.120;2023-09-30T09:26:12;3.70;;;3.50;;
703;SDS011;335;48.694;9.120;2023-09-30T09:28:49;3.60;;;3.30;;
703;SDS011;335;48.694;9.120;2023-09-30T09:31:24;3.20;;;2.90;;
703;SDS011;335;48.694;9.120;2023-09-30T09:33:51;3.00;;;2.77;;
703;SDS011;335;48.694;9.120;2023-09-30T09:36:18;3.07;;;2.87;;
703;SDS011;335;48.694;9.120;2023-09-30T09:38:51;3.77;;;3.47;;
703;SDS011;335;48.694;9.120;2023-09-30T09:41:22;4.30;;;2.97;;
703;SDS011;335;48.694;9.120;2023-09-30T09:43:49;3.03;;;2.63;;
703;SDS011;335;48.694;9.120;2023-09-30T09:46:15;2.97;;;2.77;;
703;SDS011;335;48.694;9.120;2023-09-30T09:48:41;3.57;;;3.30;;
703;SDS011;335;48.694;9.120;2023-09-30T09:51:07;2.77;;;2.23;;
703;SDS011;335;48.694;9.120;2023-09-30T09:53:35;4.77;;;2.53;;
703;SDS011;335;48.694;9.120;2023-09-30T09:56:03;3.87;;;3.57;;
703;SDS011;335;48.694;9.120;2023-09-30T09:58:32;3.50;;;3.20;;
703;SDS011;335;48.694;9.120;2023-09-30T10:00:59;3.33;;;2.97;;
703;SDS011;335;48.694;9.120;2023-09-30T10:03:26;3.60;;;3.40;;
703;SDS011;335;48.694;9.120;2023-09-30T10:05:51;2.83;;;2.63;;
703;SDS011;335;48.694;9.120;2023-09-30T10:08:17;2.57;;;2.40;;
703;SDS011;335;48.694;9.120;2023-09-30T10:10:45;3.37;;;3.17;;
703;SDS011;335;48.694;9.120;2023-09-30T10:19:11;4.33;;;3.37;;
703;SDS011;335;48.694;9.120;2023-09-30T10:21:38;4.00;;;3.70;;
703;SDS011;335;48.694;9.120;2023-09-30T10:24:27;4.00;;;3.67;;
703;SDS011;335;48.694;9.120;2023-09-30T10:29:46;4.47;;;4.07;;
703;SDS011;335;48.694;9.120;2023-09-30T10:32:12;3.67;;;3.37;;
703;SDS011;335;48.694;9.120;2023-09-30T10:34:38;6.20;;;4.90;;
703;SDS011;335;48.694;9.120;2023-09-30T10:37:20;5.17;;;4.50;;
703;SDS011;335;48.694;9.120;2023-09-30T10:39:53;4.87;;;4.30;;
703;SDS011;335;48.694;9.120;2023-09-30T10:50:50;5.00;;;4.30;;
703;SDS011;335;48.694;9.120;2023-09-30T10:53:20;4.60;;;4.20;;
703;SDS011;335;48.694;9.120;2023-09-30T10:55:45;4.50;;;4.10;;
703;SDS011;335;48.694;9.120;2023-09-30T10:58:14;4.37;;;3.97;;
703;SDS011;335;48.694;9.120;2023-09-30T11:00:51;4.23;;;3.90;;
703;SDS011;335;48.694;9.120;2023-09-30T11:03:19;3.93;;;3.73;;
703;SDS011;335;48.694;9.120;2023-09-30T11:05:47;5.40;;;4.97;;
703;SDS011;335;48.694;9.120;2023-09-30T11:08:13;5.57;;;5.07;;
703;SDS011;335;48.694;9.120;2023-09-30T11:10:52;3.93;;;3.63;;
703;SDS011;335;48.694;9.120;2023-09-30T11:13:18;5.43;;;4.73;;
703;SDS011;335;48.694;9.120;2023-09-30T11:15:43;5.87;;;5.30;;
703;SDS011;335;48.694;9.120;2023-09-30T11:18:13;4.70;;;4.30;;
703;SDS011;335;48.694;9.120;2023-09-30T11:20:42;5.10;;;4.70;;
703;SDS011;335;48.694;9.120;2023-09-30T11:23:08;5.03;;;4.63;;
703;SDS011;335;48.694;9.120;2023-09-30T11:25:38;5.07;;;4.70;;
703;SDS011;335;48.694;9.120;2023-09-30T11:28:17;5.83;;;5.30;;
703;SDS011;335;48.694;9.120;2023-09-30T11:30:57;5.20;;;4.70;;
703;SDS011;335;48.694;9.120;2023-09-30T11:33:23;4.17;;;3.87;;
703;SDS011;335;48.694;9.120;2023-09-30T11:36:23;5.00;;;4.50;;
703;SDS011;335;48.694;9.120;2023-09-30T11:38:44;4.60;;;4.20;;
703;SDS011;335;48.694;9.120;2023-09-30T11:41:11;4.47;;;4.13;;
703;SDS011;335;48.694;9.120;2023-09-30T11:43:37;5.30;;;4.80;;
703;SDS011;335;48.694;9.120;2023-09-30T11:46:04;4.30;;;4.00;;
703;SDS011;335;48.694;9.120;2023-09-30T11:48:30;4.90;;;4.50;;
703;SDS011;335;48.694;9.120;2023-09-30T11:50:56;4.57;;;4.17;;
703;SDS011;335;48.694;9.120;2023-09-30T11:53:25;5.10;;;4.70;;
703;SDS011;335;48.694;9.120;2023-09-30T11:55:50;5.20;;;4.70;;
703;SDS011;335;48.694;9.120;2023-09-30T11:58:21;5.20;;;4.70;;
703;SDS011;335;48.694;9.120;2023-09-30T12:00:47;5.23;;;4.83;;
703;SDS011;335;48.694;9.120;2023-09-30T12:03:15;6.37;;;5.70;;
703;SDS011;335;48.694;9.120;2023-09-30T12:05:41;4.90;;;4.50;;
703;SDS011;335;48.694;9.120;2023-09-30T12:08:06;5.37;;;4.87;;
703;SDS011;335;48.694;9.120;2023-09-30T12:10:32;5.13;;;4.20;;
703;SDS011;335;48.694;9.120;2023-09-30T12:12:57;5.87;;;5.27;;
703;SDS011;335;48.694;9.120;2023-09-30T12:15:23;4.60;;;4.20;;
703;SDS011;335;48.694;9.120;2023-09-30T12:17:48;5.00;;;4.60;;
703;SDS011;335;48.694;9.120;2023-09-30T12:20:14;5.90;;;5.30;;
703;SDS011;335;48.694;9.120;2023-09-30T12:22:41;6.50;;;5.60;;
703;SDS011;335;48.694;9.120;2023-09-30T12:25:06;5.73;;;5.13;;
703;SDS011;335;48.694;9.120;2023-09-30T12:27:33;6.57;;;5.90;;
703;SDS011;335;48.694;9.120;2023-09-30T12:29:59;6.17;;;5.57;;
703;SDS011;335;48.694;9.120;2023-09-30T12:32:25;4.40;;;4.10;;
703;SDS011;335;48.694;9.120;2023-09-30T12:34:51;5.30;;;4.80;;
703;SDS011;335;48.694;9.120;2023-09-30T12:37:17;5.40;;;4.90;;
703;SDS011;335;48.694;9.120;2023-09-30T12:39:43;4.93;;;3.80;;
703;SDS011;335;48.694;9.120;2023-09-30T12:42:10;5.20;;;4.70;;
703;SDS011;335;48.694;9.120;2023-09-30T12:44:37;5.20;;;4.47;;
703;SDS011;335;48.694;9.120;2023-09-30T12:47:02;6.67;;;6.00;;
703;SDS011;335;48.694;9.120;2023-09-30T12:49:30;4.87;;;4.47;;
703;SDS011;335;48.694;9.120;2023-09-30T12:51:55;4.70;;;4.30;;
703;SDS011;335;48.694;9.120;2023-09-30T12:54:22;5.00;;;4.60;;
703;SDS011;335;48.694;9.120;2023-09-30T12:56:48;4.83;;;4.53;;
703;SDS011;335;48.694;9.120;2023-09-30T12:59:15;4.00;;;3.70;;
703;SDS011;335;48.694;9.120;2023-09-30T13:01:42;4.40;;;4.10;;
703;SDS011;335;48.694;9.120;2023-09-30T13:04:08;3.93;;;3.63;;
703;SDS011;335;48.694;9.120;2023-09-30T13:06:33;4.50;;;4.10;;
703;SDS011;335;48.694;9.120;2023-09-30T13:09:00;4.40;;;4.00;;
703;SDS011;335;48.694;9.120;2023-09-30T13:11:26;4.40;;;4.10;;
703;SDS011;335;48.694;9.120;2023-09-30T13:13:51;4.63;;;4.10;;
703;SDS011;335;48.694;9.120;2023-09-30T13:16:17;3.73;;;3.53;;
703;SDS011;335;48.694;9.120;2023-09-30T13:18:42;4.43;;;4.13;;
703;SDS011;335;48.694;9.120;2023-09-30T13:21:08;5.00;;;4.60;;
703;SDS011;335;48.694;9.120;2023-09-30T13:23:34;4.00;;;3.70;;
703;SDS011;335;48.694;9.120;2023-09-30T13:26:00;5.73;;;4.40;;
703;SDS011;335;48.694;9.120;2023-09-30T13:28:26;4.37;;;4.00;;
703;SDS011;335;48.694;9.120;2023-09-30T13:30:53;5.10;;;4.30;;
703;SDS011;335;48.694;9.120;2023-09-30T13:33:18;4.57;;;4.27;;
703;SDS011;335;48.694;9.120;2023-09-30T13:35:46;4.13;;;3.87;;
703;SDS011;335;48.694;9.120;2023-09-30T13:38:12;4.57;;;4.17;;
703;SDS011;335;48.694;9.120;2023-09-30T13:40:38;4.40;;;4.00;;
703;SDS011;335;48.694;9.120;2023-09-30T13:43:06;4.77;;;4.37;;
703;SDS011;335;48.694;9.120;2023-09-30T13:45:31;6.50;;;4.07;;
703;SDS011;335;48.694;9.120;2023-09-30T13:47:57;4.13;;;3.83;;
703;SDS011;335;48.694;9.120;2023-09-30T13:50:24;4.30;;;4.00;;
703;SDS011;335;48.694;9.120;2023-09-30T13:52:49;4.57;;;4.17;;
703;SDS011;335;48.694;9.120;2023-09-30T13:55:14;5.33;;;4.13;;
703;SDS011;335;48.694;9.120;2023-09-30T13:57:46;4.87;;;4.47;;
703;SDS011;335;48.694;9.120;2023-09-30T14:00:12;5.17;;;4.33;;
703;SDS011;335;48.694;9.120;2023-09-30T14:02:42;5.30;;;4.80;;
703;SDS011;335;48.694;9.120;2023-09-30T14:05:09;5.90;;;4.70;;
703;SDS011;335;48.694;9.120;2023-09-30T14:07:36;5.00;;;4.20;;
703;SDS011;335;48.694;9.120;2023-09-30T14:10:02;4.63;;;4.20;;
703;SDS011;335;48.694;9.120;2023-09-30T14:12:28;4.93;;;4.53;;
703;SDS011;335;48.694;9.120;2023-09-30T14:14:54;4.50;;;4.10;;
703;SDS011;335;48.694;9.120;2023-09-30T14:17:21;5.53;;;4.30;;
703;SDS011;335;48.694;9.120;2023-09-30T14:19:46;5.77;;;5.23;;
703;SDS011;335;48.694;9.120;2023-09-30T14:22:11;5.13;;;4.63;;
703;SDS011;335;48.694;9.120;2023-09-30T14:24:37;4.93;;;4.53;;
703;SDS011;335;48.694;9.120;2023-09-30T14:27:02;4.90;;;4.30;;
703;SDS011;335;48.694;9.120;2023-09-30T14:29:28;4.80;;;4.40;;
703;SDS011;335;48.694;9.120;2023-09-30T14:31:54;4.60;;;4.20;;
703;SDS011;335;48.694;9.120;2023-09-30T14:34:20;4.83;;;4.33;;
703;SDS011;335;48.694;9.120;2023-09-30T14:36:45;5.00;;;4.50;;
703;SDS011;335;48.694;9.120;2023-09-30T14:39:12;5.00;;;4.50;;
703;SDS011;335;48.694;9.120;2023-09-30T14:41:37;4.33;;;3.97;;
703;SDS011;335;48.694;9.120;2023-09-30T14:44:04;5.27;;;4.70;;
703;SDS011;335;48.694;9.120;2023-09-30T14:46:32;5.43;;;4.93;;
703;SDS011;335;48.694;9.120;2023-09-30T14:49:02;4.13;;;3.83;;
703;SDS011;335;48.694;9.120;2023-09-30T14:51:27;6.93;;;4.53;;
703;SDS011;335;48.694;9.120;2023-09-30T14:53:52;4.60;;;4.13;;
703;SDS011;335;48.694;9.120;2023-09-30T14:56:18;13.50;;;5.90;;
703;SDS011;335;48.694;9.120;2023-09-30T14:58:43;6.00;;;4.80;;
703;SDS011;335;48.694;9.120;2023-09-30T15:01:09;4.93;;;4.53;;
703;SDS011;335;48.694;9.120;2023-09-30T15:03:35;5.87;;;4.80;;
703;SDS011;335;48.694;9.120;2023-09-30T15:06:02;5.50;;;5.00;;
703;SDS011;335;48.694;9.120;2023-09-30T15:08:30;5.23;;;4.50;;
703;SDS011;335;48.694;9.120;2023-09-30T15:10:59;5.10;;;4.13;;
703;SDS011;335;48.694;9.120;2023-09-30T15:13:25;4.73;;;4.00;;
703;SDS011;335;48.694;9.120;2023-09-30T15:15:51;4.47;;;4.07;;
703;SDS011;335;48.694;9.120;2023-09-30T15:18:17;6.20;;;4.60;;
703;SDS011;335;48.694;9.120;2023-09-30T15:20:43;4.97;;;4.50;;
703;SDS011;335;48.694;9.120;2023-09-30T15:23:09;5.20;;;4.70;;
703;SDS011;335;48.694;9.120;2023-09-30T15:25:39;5.73;;;5.13;;
703;SDS011;335;48.694;9.120;2023-09-30T15:28:08;5.10;;;4.10;;
703;SDS011;335;48.694;9.120;2023-09-30T15:30:34;5.43;;;4.17;;
703;SDS011;335;48.694;9.120;2023-09-30T15:33:00;4.23;;;3.90;;
703;SDS011;335;48.694;9.120;2023-09-30T15:35:27;4.70;;;4.30;;
703;SDS011;335;48.694;9.120;2023-09-30T15:37:52;5.43;;;4.93;;
703;SDS011;335;48.694;9.120;2023-09-30T15:40:17;4.67;;;4.37;;
703;SDS011;335;48.694;9.120;2023-09-30T15:42:43;9.20;;;5.87;;
703;SDS011;335;48.694;9.120;2023-09-30T15:45:10;4.03;;;3.73;;
703;SDS011;335;48.694;9.120;2023-09-30T15:47:38;6.33;;;4.77;;
703;SDS011;335;48.694;9.120;2023-09-30T15:50:04;4.13;;;3.77;;
703;SDS011;335;48.694;9.120;2023-09-30T15:52:30;4.50;;;4.03;;
703;SDS011;335;48.694;9.120;2023-09-30T15:54:56;5.03;;;4.53;;
703;SDS011;335;48.694;9.120;2023-09-30T15:57:22;4.50;;;4.10;;
703;SDS011;335;48.694;9.120;2023-09-30T15:59:47;5.73;;;5.20;;